Gibraltar, Gibraltar

12:16 PM CEST on August 31, 2015 (GMT +0200)
Colegio San Pedro | | Change Station
CLOSE
Current Station
Personal Weather Station
Location: La Linea De La Concepción, ANDALUCíA
Elevation: 23 ft
Nearby Weather Stations

Elev 23 ft 36.17 °N, 5.35 °W | Updated 14 seconds ago

Mostly Cloudy
Mostly Cloudy
81.3 °F
Feels Like 87 °F
N
0.9
Wind Variable Wind from SSW
Gusts 2.5 mph

Today
High -- | Low -- °F
--% Chance of Precip.
Yesterday
High -- | Low -- °F
Precip. -- in
7:51 AM 8:51 PM
Waning Gibbous, 96% visible
Pressure 30.01 in
Visibility 1.9 miles
Clouds Scattered Clouds 800 ft
Mostly Cloudy 1600 ft
Heat Index 87 °F
Dew Point 74 °F
Humidity 79%
Rainfall 0.00 in
Snow Depth Not available.
UV 2.0 out of 12
Pollen Not available.
Air Quality Not available.
Flu Activity Not available.
METAR GMTN 311000Z 02003KT 330V070 3000 BR SCT008 BKN016 25/23 Q1016 NOSIG
Pressure 30.01 in
Visibility 1.9 miles
Clouds Scattered Clouds 800 ft
Mostly Cloudy 1600 ft
Heat Index 87 °F
Dew Point 74 °F
Humidity 79%
Rainfall 0.00 in
Snow Depth Not available.
UV 2.0 out of 12
Pollen Not available.
Air Quality Not available.
Flu Activity Not available.
METAR GMTN 311000Z 02003KT 330V070 3000 BR SCT008 BKN016 25/23 Q1016 NOSIG

10-Day Weather Forecast

×

Almanac

Astronomy

Aug. 31, 2015 Rise Set
Actual Time
Civil Twilight
Nautical Twilight
Astronomical Twilight
Moon
Length of Visible Light
Length of Day
Tomorrow will be .
, % of the Moon is Illuminated

Today's Extremes

Country Highs Country Lows

Community

WunderPhotos

Upload Photos

1,851,229 photos uploaded!

WunderBlogs® & News

Nearby

Air Quality

  Air Quality AQ Index Pollutant
Not available.

Snow Depth

Station Depth Elevation

Earthquake Activity

City Distance Mag. Time & Date
Minimum magnitude displayed is 2.5.

Coastal Water Temperatures

Place Temperature

Stations

Nearby Weather Stations

Station Location Temp. Windchill Dew Point Humidity Wind Precip. Elev Updated Type